sensor_id;sensor_type;location;lat;lon;timestamp;temperature;humidity
33414;DHT22;60055;41.884;12.534;2023-01-15T00:01:28;9.70;99.90
33414;DHT22;60055;41.884;12.534;2023-01-15T00:03:55;9.60;99.90
33414;DHT22;60055;41.884;12.534;2023-01-15T00:06:25;9.60;99.90
33414;DHT22;60055;41.884;12.534;2023-01-15T00:08:52;9.60;99.90
33414;DHT22;60055;41.884;12.534;2023-01-15T00:11:18;9.60;99.90
33414;DHT22;60055;41.884;12.534;2023-01-15T00:13:44;9.70;99.90
33414;DHT22;60055;41.884;12.534;2023-01-15T00:16:17;9.60;99.90
33414;DHT22;60055;41.884;12.534;2023-01-15T00:18:48;9.60;99.90
33414;DHT22;60055;41.884;12.534;2023-01-15T00:21:15;9.60;99.90
33414;DHT22;60055;41.884;12.534;2023-01-15T00:23:45;9.50;99.90
33414;DHT22;60055;41.884;12.534;2023-01-15T00:26:30;9.50;99.90
33414;DHT22;60055;41.884;12.534;2023-01-15T00:29:15;9.50;99.90
33414;DHT22;60055;41.884;12.534;2023-01-15T00:31:41;9.40;99.90
33414;DHT22;60055;41.884;12.534;2023-01-15T00:34:07;9.40;99.90
33414;DHT22;60055;41.884;12.534;2023-01-15T00:36:33;9.40;99.90
33414;DHT22;60055;41.884;12.534;2023-01-15T00:39:00;9.40;99.90
33414;DHT22;60055;41.884;12.534;2023-01-15T00:41:26;9.40;99.90
33414;DHT22;60055;41.884;12.534;2023-01-15T00:43:53;9.30;99.90
33414;DHT22;60055;41.884;12.534;2023-01-15T00:46:20;9.30;99.90
33414;DHT22;60055;41.884;12.534;2023-01-15T00:48:46;9.30;99.90
33414;DHT22;60055;41.884;12.534;2023-01-15T00:51:12;9.30;99.90
33414;DHT22;60055;41.884;12.534;2023-01-15T00:53:38;9.20;99.90
33414;DHT22;60055;41.884;12.534;2023-01-15T00:56:03;9.20;99.90
33414;DHT22;60055;41.884;12.534;2023-01-15T00:58:29;9.30;99.90
33414;DHT22;60055;41.884;12.534;2023-01-15T01:00:56;9.40;99.90
33414;DHT22;60055;41.884;12.534;2023-01-15T01:03:22;9.40;99.90
33414;DHT22;60055;41.884;12.534;2023-01-15T01:05:49;9.40;99.90
33414;DHT22;60055;41.884;12.534;2023-01-15T01:08:15;9.20;99.90
33414;DHT22;60055;41.884;12.534;2023-01-15T01:10:42;9.30;99.90
33414;DHT22;60055;41.884;12.534;2023-01-15T01:13:08;9.20;99.90
33414;DHT22;60055;41.884;12.534;2023-01-15T01:15:37;9.20;99.90
33414;DHT22;60055;41.884;12.534;2023-01-15T01:18:04;9.20;99.90
33414;DHT22;60055;41.884;12.534;2023-01-15T01:20:30;9.20;99.90
33414;DHT22;60055;41.884;12.534;2023-01-15T01:22:57;9.10;99.90
33414;DHT22;60055;41.884;12.534;2023-01-15T01:25:22;9.10;99.90
33414;DHT22;60055;41.884;12.534;2023-01-15T01:27:48;9.20;99.90
33414;DHT22;60055;41.884;12.534;2023-01-15T01:30:15;9.20;99.90
33414;DHT22;60055;41.884;12.534;2023-01-15T01:32:48;9.20;99.90
33414;DHT22;60055;41.884;12.534;2023-01-15T01:35:15;9.10;99.90
33414;DHT22;60055;41.884;12.534;2023-01-15T01:37:40;9.10;99.90
33414;DHT22;60055;41.884;12.534;2023-01-15T01:40:06;9.10;99.90
33414;DHT22;60055;41.884;12.534;2023-01-15T01:42:32;9.00;99.90
33414;DHT22;60055;41.884;12.534;2023-01-15T01:45:08;8.90;99.90
33414;DHT22;60055;41.884;12.534;2023-01-15T01:47:36;9.00;99.90
33414;DHT22;60055;41.884;12.534;2023-01-15T01:50:07;8.90;99.90
33414;DHT22;60055;41.884;12.534;2023-01-15T01:52:45;8.90;99.90
33414;DHT22;60055;41.884;12.534;2023-01-15T01:55:13;9.00;99.90
33414;DHT22;60055;41.884;12.534;2023-01-15T01:57:41;9.00;99.90
33414;DHT22;60055;41.884;12.534;2023-01-15T02:00:09;8.90;99.90
33414;DHT22;60055;41.884;12.534;2023-01-15T02:02:36;8.90;99.90
33414;DHT22;60055;41.884;12.534;2023-01-15T02:05:03;8.70;99.90
33414;DHT22;60055;41.884;12.534;2023-01-15T02:07:29;8.70;99.90
33414;DHT22;60055;41.884;12.534;2023-01-15T02:09:57;8.80;99.90
33414;DHT22;60055;41.884;12.534;2023-01-15T02:12:37;8.80;99.90
33414;DHT22;60055;41.884;12.534;2023-01-15T02:15:15;8.70;99.90
33414;DHT22;60055;41.884;12.534;2023-01-15T02:18:39;8.80;99.90
33414;DHT22;60055;41.884;12.534;2023-01-15T02:20:57;8.70;99.90
33414;DHT22;60055;41.884;12.534;2023-01-15T02:23:59;8.80;99.90
33414;DHT22;60055;41.884;12.534;2023-01-15T02:32:50;8.70;99.90
33414;DHT22;60055;41.884;12.534;2023-01-15T02:35:25;8.70;99.90
33414;DHT22;60055;41.884;12.534;2023-01-15T02:38:03;8.70;99.90
33414;DHT22;60055;41.884;12.534;2023-01-15T02:40:30;8.60;99.90
33414;DHT22;60055;41.884;12.534;2023-01-15T02:42:58;8.60;99.90
33414;DHT22;60055;41.884;12.534;2023-01-15T02:45:30;8.70;99.90
33414;DHT22;60055;41.884;12.534;2023-01-15T02:48:01;8.70;99.90
33414;DHT22;60055;41.884;12.534;2023-01-15T02:50:35;8.70;99.90
33414;DHT22;60055;41.884;12.534;2023-01-15T02:53:04;8.70;99.90
33414;DHT22;60055;41.884;12.534;2023-01-15T02:55:36;8.70;99.90
33414;DHT22;60055;41.884;12.534;2023-01-15T02:58:07;8.70;99.90
33414;DHT22;60055;41.884;12.534;2023-01-15T03:00:37;8.70;99.90
33414;DHT22;60055;41.884;12.534;2023-01-15T03:03:14;8.70;99.90
33414;DHT22;60055;41.884;12.534;2023-01-15T03:05:59;8.60;99.90
33414;DHT22;60055;41.884;12.534;2023-01-15T03:08:26;8.60;99.90
33414;DHT22;60055;41.884;12.534;2023-01-15T03:13:45;8.60;99.90
33414;DHT22;60055;41.884;12.534;2023-01-15T03:22:08;8.80;99.90
33414;DHT22;60055;41.884;12.534;2023-01-15T03:24:42;8.70;99.90
33414;DHT22;60055;41.884;12.534;2023-01-15T03:27:09;8.80;99.90
33414;DHT22;60055;41.884;12.534;2023-01-15T03:29:38;8.80;99.90
33414;DHT22;60055;41.884;12.534;2023-01-15T03:32:04;8.90;99.90
33414;DHT22;60055;41.884;12.534;2023-01-15T03:34:53;8.70;99.90
33414;DHT22;60055;41.884;12.534;2023-01-15T03:37:21;8.70;99.90
33414;DHT22;60055;41.884;12.534;2023-01-15T03:39:48;8.70;99.90
33414;DHT22;60055;41.884;12.534;2023-01-15T03:42:19;8.80;99.90
33414;DHT22;60055;41.884;12.534;2023-01-15T03:45:11;8.80;99.90
33414;DHT22;60055;41.884;12.534;2023-01-15T03:50:33;8.80;99.90
33414;DHT22;60055;41.884;12.534;2023-01-15T03:53:22;8.90;99.90
33414;DHT22;60055;41.884;12.534;2023-01-15T03:56:13;8.70;99.90
33414;DHT22;60055;41.884;12.534;2023-01-15T04:01:18;8.90;99.90
33414;DHT22;60055;41.884;12.534;2023-01-15T04:03:47;8.80;99.90
33414;DHT22;60055;41.884;12.534;2023-01-15T04:06:14;9.00;99.90
33414;DHT22;60055;41.884;12.534;2023-01-15T04:08:42;9.00;99.90
33414;DHT22;60055;41.884;12.534;2023-01-15T04:11:10;8.90;99.90
33414;DHT22;60055;41.884;12.534;2023-01-15T04:13:36;8.80;99.90
33414;DHT22;60055;41.884;12.534;2023-01-15T04:16:02;8.90;99.90
33414;DHT22;60055;41.884;12.534;2023-01-15T04:18:28;8.90;99.90
33414;DHT22;60055;41.884;12.534;2023-01-15T04:20:54;8.90;99.90
33414;DHT22;60055;41.884;12.534;2023-01-15T04:23:20;9.00;99.90
33414;DHT22;60055;41.884;12.534;2023-01-15T04:25:46;9.00;99.90
33414;DHT22;60055;41.884;12.534;2023-01-15T04:28:13;9.00;99.90
33414;DHT22;60055;41.884;12.534;2023-01-15T04:30:39;8.90;99.90
33414;DHT22;60055;41.884;12.534;2023-01-15T04:33:07;8.90;99.90
33414;DHT22;60055;41.884;12.534;2023-01-15T04:35:33;8.90;99.90
33414;DHT22;60055;41.884;12.534;2023-01-15T04:38:00;8.90;99.90
33414;DHT22;60055;41.884;12.534;2023-01-15T04:40:26;8.90;99.90
33414;DHT22;60055;41.884;12.534;2023-01-15T04:43:14;8.80;99.90
33414;DHT22;60055;41.884;12.534;2023-01-15T04:45:59;8.80;99.90
33414;DHT22;60055;41.884;12.534;2023-01-15T04:48:26;8.80;99.90
33414;DHT22;60055;41.884;12.534;2023-01-15T04:50:53;8.80;99.90
33414;DHT22;60055;41.884;12.534;2023-01-15T04:53:19;8.90;99.90
33414;DHT22;60055;41.884;12.534;2023-01-15T04:55:45;8.80;99.90
33414;DHT22;60055;41.884;12.534;2023-01-15T04:58:10;8.90;99.90
33414;DHT22;60055;41.884;12.534;2023-01-15T05:00:37;8.90;99.90
33414;DHT22;60055;41.884;12.534;2023-01-15T05:03:02;9.00;99.90
33414;DHT22;60055;41.884;12.534;2023-01-15T05:05:28;8.90;99.90
33414;DHT22;60055;41.884;12.534;2023-01-15T05:07:53;8.90;99.90
33414;DHT22;60055;41.884;12.534;2023-01-15T05:10:19;8.90;99.90
33414;DHT22;60055;41.884;12.534;2023-01-15T05:12:45;8.80;99.90
33414;DHT22;60055;41.884;12.534;2023-01-15T05:15:10;8.80;99.90
33414;DHT22;60055;41.884;12.534;2023-01-15T05:17:36;8.80;99.90
33414;DHT22;60055;41.884;12.534;2023-01-15T05:20:02;8.80;99.90
33414;DHT22;60055;41.884;12.534;2023-01-15T05:22:27;8.80;99.90
33414;DHT22;60055;41.884;12.534;2023-01-15T05:24:53;8.80;99.90
33414;DHT22;60055;41.884;12.534;2023-01-15T05:27:19;8.80;99.90
33414;DHT22;60055;41.884;12.534;2023-01-15T05:29:48;8.90;99.90
33414;DHT22;60055;41.884;12.534;2023-01-15T05:32:14;8.90;99.90
33414;DHT22;60055;41.884;12.534;2023-01-15T05:34:40;8.90;99.90
33414;DHT22;60055;41.884;12.534;2023-01-15T05:37:05;9.00;99.90
33414;DHT22;60055;41.884;12.534;2023-01-15T05:39:31;9.00;99.90
33414;DHT22;60055;41.884;12.534;2023-01-15T05:41:58;9.00;99.90
33414;DHT22;60055;41.884;12.534;2023-01-15T05:44:25;9.10;99.90
33414;DHT22;60055;41.884;12.534;2023-01-15T05:46:59;9.20;99.90
33414;DHT22;60055;41.884;12.534;2023-01-15T05:49:27;9.20;99.90
33414;DHT22;60055;41.884;12.534;2023-01-15T05:51:54;9.10;99.90
33414;DHT22;60055;41.884;12.534;2023-01-15T05:54:22;9.00;99.90
33414;DHT22;60055;41.884;12.534;2023-01-15T05:56:49;9.10;99.90
33414;DHT22;60055;41.884;12.534;2023-01-15T05:59:17;9.00;99.90
33414;DHT22;60055;41.884;12.534;2023-01-15T06:01:43;9.00;99.90
33414;DHT22;60055;41.884;12.534;2023-01-15T06:04:14;9.00;99.90
33414;DHT22;60055;41.884;12.534;2023-01-15T06:06:47;9.00;99.90
33414;DHT22;60055;41.884;12.534;2023-01-15T06:09:13;9.00;99.90
33414;DHT22;60055;41.884;12.534;2023-01-15T06:11:44;9.00;99.90
33414;DHT22;60055;41.884;12.534;2023-01-15T06:14:11;9.00;99.90
33414;DHT22;60055;41.884;12.534;2023-01-15T06:16:41;9.00;99.90
33414;DHT22;60055;41.884;12.534;2023-01-15T06:19:08;9.10;99.90
33414;DHT22;60055;41.884;12.534;2023-01-15T06:21:35;9.00;99.90
33414;DHT22;60055;41.884;12.534;2023-01-15T06:24:02;9.10;99.90
33414;DHT22;60055;41.884;12.534;2023-01-15T06:26:30;9.20;99.90
33414;DHT22;60055;41.884;12.534;2023-01-15T06:28:58;9.20;99.90
33414;DHT22;60055;41.884;12.534;2023-01-15T06:31:24;9.30;99.90
33414;DHT22;60055;41.884;12.534;2023-01-15T06:33:53;9.40;99.90
33414;DHT22;60055;41.884;12.534;2023-01-15T06:36:22;9.40;99.90
33414;DHT22;60055;41.884;12.534;2023-01-15T06:38:49;9.40;99.90
33414;DHT22;60055;41.884;12.534;2023-01-15T06:41:18;9.50;99.90
33414;DHT22;60055;41.884;12.534;2023-01-15T06:44:02;9.40;99.90
33414;DHT22;60055;41.884;12.534;2023-01-15T06:46:49;9.30;99.90
33414;DHT22;60055;41.884;12.534;2023-01-15T06:49:35;9.40;99.90
33414;DHT22;60055;41.884;12.534;2023-01-15T06:52:02;9.40;99.90
33414;DHT22;60055;41.884;12.534;2023-01-15T06:54:30;9.40;99.90
33414;DHT22;60055;41.884;12.534;2023-01-15T06:56:55;9.40;99.90
33414;DHT22;60055;41.884;12.534;2023-01-15T06:59:21;9.40;99.90
33414;DHT22;60055;41.884;12.534;2023-01-15T07:01:49;9.50;99.90
33414;DHT22;60055;41.884;12.534;2023-01-15T07:04:15;9.60;99.90
33414;DHT22;60055;41.884;12.534;2023-01-15T07:06:41;9.40;99.90
33414;DHT22;60055;41.884;12.534;2023-01-15T07:09:08;9.20;99.90
33414;DHT22;60055;41.884;12.534;2023-01-15T07:11:33;9.30;99.90
33414;DHT22;60055;41.884;12.534;2023-01-15T07:13:59;9.50;99.90
33414;DHT22;60055;41.884;12.534;2023-01-15T07:16:34;9.50;99.90
33414;DHT22;60055;41.884;12.534;2023-01-15T07:19:01;9.40;99.90
33414;DHT22;60055;41.884;12.534;2023-01-15T07:21:29;9.50;99.90
33414;DHT22;60055;41.884;12.534;2023-01-15T07:23:58;9.60;99.90
33414;DHT22;60055;41.884;12.534;2023-01-15T07:26:24;9.70;99.90
33414;DHT22;60055;41.884;12.534;2023-01-15T07:28:49;9.70;99.90
33414;DHT22;60055;41.884;12.534;2023-01-15T07:31:16;9.70;99.90
33414;DHT22;60055;41.884;12.534;2023-01-15T07:33:43;9.70;99.90
33414;DHT22;60055;41.884;12.534;2023-01-15T07:36:08;9.80;99.90
33414;DHT22;60055;41.884;12.534;2023-01-15T07:38:34;9.70;99.90
33414;DHT22;60055;41.884;12.534;2023-01-15T07:41:00;9.70;99.90
33414;DHT22;60055;41.884;12.534;2023-01-15T07:43:44;9.80;99.90
33414;DHT22;60055;41.884;12.534;2023-01-15T07:46:29;9.90;99.90
33414;DHT22;60055;41.884;12.534;2023-01-15T07:49:16;9.90;99.90
33414;DHT22;60055;41.884;12.534;2023-01-15T07:52:00;9.80;99.90
33414;DHT22;60055;41.884;12.534;2023-01-15T07:54:26;9.80;99.90
33414;DHT22;60055;41.884;12.534;2023-01-15T07:56:53;10.00;99.90
33414;DHT22;60055;41.884;12.534;2023-01-15T07:59:21;10.00;99.90
33414;DHT22;60055;41.884;12.534;2023-01-15T08:01:49;10.00;99.90
33414;DHT22;60055;41.884;12.534;2023-01-15T08:04:16;10.20;99.90
33414;DHT22;60055;41.884;12.534;2023-01-15T08:06:42;10.10;99.90
33414;DHT22;60055;41.884;12.534;2023-01-15T08:09:11;10.10;99.90
33414;DHT22;60055;41.884;12.534;2023-01-15T08:11:40;10.10;99.90
33414;DHT22;60055;41.884;12.534;2023-01-15T08:14:25;10.30;99.90
33414;DHT22;60055;41.884;12.534;2023-01-15T08:17:12;10.30;99.90
33414;DHT22;60055;41.884;12.534;2023-01-15T08:19:38;10.40;99.90
33414;DHT22;60055;41.884;12.534;2023-01-15T08:22:06;10.40;99.90
33414;DHT22;60055;41.884;12.534;2023-01-15T08:24:44;10.30;99.90
33414;DHT22;60055;41.884;12.534;2023-01-15T08:27:11;10.30;99.90
33414;DHT22;60055;41.884;12.534;2023-01-15T08:29:38;10.40;99.90
33414;DHT22;60055;41.884;12.534;2023-01-15T08:32:15;10.40;99.90
33414;DHT22;60055;41.884;12.534;2023-01-15T08:34:41;10.40;99.90
33414;DHT22;60055;41.884;12.534;2023-01-15T08:37:07;10.50;99.90
33414;DHT22;60055;41.884;12.534;2023-01-15T08:39:41;10.50;99.90
33414;DHT22;60055;41.884;12.534;2023-01-15T08:42:07;10.60;99.90
33414;DHT22;60055;41.884;12.534;2023-01-15T08:44:33;10.60;99.90
33414;DHT22;60055;41.884;12.534;2023-01-15T08:46:58;10.60;99.90
33414;DHT22;60055;41.884;12.534;2023-01-15T08:49:29;10.60;99.90
33414;DHT22;60055;41.884;12.534;2023-01-15T08:52:00;10.70;99.90
33414;DHT22;60055;41.884;12.534;2023-01-15T08:54:32;10.60;99.90
33414;DHT22;60055;41.884;12.534;2023-01-15T08:56:59;10.70;99.90
33414;DHT22;60055;41.884;12.534;2023-01-15T08:59:33;10.70;99.90
33414;DHT22;60055;41.884;12.534;2023-01-15T09:02:02;10.60;99.90
33414;DHT22;60055;41.884;12.534;2023-01-15T09:04:29;10.70;99.90
33414;DHT22;60055;41.884;12.534;2023-01-15T09:06:59;10.70;99.90
33414;DHT22;60055;41.884;12.534;2023-01-15T09:09:36;10.90;99.90
33414;DHT22;60055;41.884;12.534;2023-01-15T09:12:03;11.10;99.90
33414;DHT22;60055;41.884;12.534;2023-01-15T09:14:28;11.50;99.90
33414;DHT22;60055;41.884;12.534;2023-01-15T09:16:54;12.10;99.90
33414;DHT22;60055;41.884;12.534;2023-01-15T09:19:20;12.40;99.90
33414;DHT22;60055;41.884;12.534;2023-01-15T09:21:46;12.30;99.90
33414;DHT22;60055;41.884;12.534;2023-01-15T09:24:11;12.40;99.90
33414;DHT22;60055;41.884;12.534;2023-01-15T09:26:38;12.20;99.90
33414;DHT22;60055;41.884;12.534;2023-01-15T09:29:05;12.10;99.90
33414;DHT22;60055;41.884;12.534;2023-01-15T09:31:31;12.30;99.90
33414;DHT22;60055;41.884;12.534;2023-01-15T09:33:58;12.00;99.90
33414;DHT22;60055;41.884;12.534;2023-01-15T09:36:27;12.10;99.90
33414;DHT22;60055;41.884;12.534;2023-01-15T09:38:54;12.10;99.90
33414;DHT22;60055;41.884;12.534;2023-01-15T09:41:21;12.10;99.90
33414;DHT22;60055;41.884;12.534;2023-01-15T09:44:30;12.30;99.90
33414;DHT22;60055;41.884;12.534;2023-01-15T09:47:08;12.10;99.90
33414;DHT22;60055;41.884;12.534;2023-01-15T09:50:16;12.00;99.90
33414;DHT22;60055;41.884;12.534;2023-01-15T09:57:50;12.60;99.90
33414;DHT22;60055;41.884;12.534;2023-01-15T10:00:24;12.90;99.90
33414;DHT22;60055;41.884;12.534;2023-01-15T10:05:33;13.10;99.90
33414;DHT22;60055;41.884;12.534;2023-01-15T10:08:24;13.00;99.90
33414;DHT22;60055;41.884;12.534;2023-01-15T10:10:58;13.20;99.90
33414;DHT22;60055;41.884;12.534;2023-01-15T10:13:40;13.10;99.90
33414;DHT22;60055;41.884;12.534;2023-01-15T10:16:10;13.20;99.90
33414;DHT22;60055;41.884;12.534;2023-01-15T10:18:37;13.30;99.90
33414;DHT22;60055;41.884;12.534;2023-01-15T10:24:21;13.20;99.90
33414;DHT22;60055;41.884;12.534;2023-01-15T10:26:50;13.40;99.90
33414;DHT22;60055;41.884;12.534;2023-01-15T10:29:35;13.60;99.90
33414;DHT22;60055;41.884;12.534;2023-01-15T10:32:29;13.40;99.90
33414;DHT22;60055;41.884;12.534;2023-01-15T10:38:04;13.20;99.90
33414;DHT22;60055;41.884;12.534;2023-01-15T10:41:02;13.20;99.90
33414;DHT22;60055;41.884;12.534;2023-01-15T10:46:06;13.10;99.90
33414;DHT22;60055;41.884;12.534;2023-01-15T10:48:56;13.10;99.90
33414;DHT22;60055;41.884;12.534;2023-01-15T10:51:44;12.80;99.90
33414;DHT22;60055;41.884;12.534;2023-01-15T10:56:52;12.70;99.90
33414;DHT22;60055;41.884;12.534;2023-01-15T11:02:29;12.70;99.90
33414;DHT22;60055;41.884;12.534;2023-01-15T11:04:58;12.50;99.90
33414;DHT22;60055;41.884;12.534;2023-01-15T11:07:44;12.60;99.90
33414;DHT22;60055;41.884;12.534;2023-01-15T11:10:21;12.60;99.90
33414;DHT22;60055;41.884;12.534;2023-01-15T11:12:55;12.50;99.90
33414;DHT22;60055;41.884;12.534;2023-01-15T11:15:44;12.40;99.90
33414;DHT22;60055;41.884;12.534;2023-01-15T11:18:34;12.50;99.90
33414;DHT22;60055;41.884;12.534;2023-01-15T11:21:21;12.50;99.90
33414;DHT22;60055;41.884;12.534;2023-01-15T11:23:49;12.60;99.90
33414;DHT22;60055;41.884;12.534;2023-01-15T11:26:22;12.60;99.90
33414;DHT22;60055;41.884;12.534;2023-01-15T11:28:48;12.60;99.90
33414;DHT22;60055;41.884;12.534;2023-01-15T11:31:16;12.80;99.90
33414;DHT22;60055;41.884;12.534;2023-01-15T11:36:25;12.80;99.90
33414;DHT22;60055;41.884;12.534;2023-01-15T11:38:51;12.80;99.90
33414;DHT22;60055;41.884;12.534;2023-01-15T11:44:11;13.10;99.90
33414;DHT22;60055;41.884;12.534;2023-01-15T11:46:56;13.10;99.90
33414;DHT22;60055;41.884;12.534;2023-01-15T11:49:54;13.10;99.90
33414;DHT22;60055;41.884;12.534;2023-01-15T11:52:44;13.10;99.90
33414;DHT22;60055;41.884;12.534;2023-01-15T11:55:20;13.10;99.90
33414;DHT22;60055;41.884;12.534;2023-01-15T11:57:51;13.20;99.90
33414;DHT22;60055;41.884;12.534;2023-01-15T12:00:21;13.40;99.90
33414;DHT22;60055;41.884;12.534;2023-01-15T12:02:58;13.40;99.90
33414;DHT22;60055;41.884;12.534;2023-01-15T12:05:33;13.40;99.90
33414;DHT22;60055;41.884;12.534;2023-01-15T12:08:44;13.40;99.90
33414;DHT22;60055;41.884;12.534;2023-01-15T12:14:16;13.50;99.90
33414;DHT22;60055;41.884;12.534;2023-01-15T12:28:31;13.50;99.90
33414;DHT22;60055;41.884;12.534;2023-01-15T12:33:59;13.60;99.90
33414;DHT22;60055;41.884;12.534;2023-01-15T12:36:53;13.70;99.90
33414;DHT22;60055;41.884;12.534;2023-01-15T12:39:26;13.80;99.90
33414;DHT22;60055;41.884;12.534;2023-01-15T12:41:57;13.70;99.90
33414;DHT22;60055;41.884;12.534;2023-01-15T12:45:00;13.80;99.90
33414;DHT22;60055;41.884;12.534;2023-01-15T12:59:18;14.00;99.90
33414;DHT22;60055;41.884;12.534;2023-01-15T13:02:17;14.00;99.90
33414;DHT22;60055;41.884;12.534;2023-01-15T13:05:17;14.00;99.90
33414;DHT22;60055;41.884;12.534;2023-01-15T13:08:16;13.90;99.90
33414;DHT22;60055;41.884;12.534;2023-01-15T13:10:41;14.00;99.90
33414;DHT22;60055;41.884;12.534;2023-01-15T13:13:24;14.00;99.90
33414;DHT22;60055;41.884;12.534;2023-01-15T13:21:25;14.10;99.90
33414;DHT22;60055;41.884;12.534;2023-01-15T13:24:13;14.20;99.90
33414;DHT22;60055;41.884;12.534;2023-01-15T13:27:15;14.10;99.90
33414;DHT22;60055;41.884;12.534;2023-01-15T13:32:46;14.20;99.90
33414;DHT22;60055;41.884;12.534;2023-01-15T13:35:32;14.10;99.90
33414;DHT22;60055;41.884;12.534;2023-01-15T13:38:01;14.00;99.90
33414;DHT22;60055;41.884;12.534;2023-01-15T13:40:43;13.90;99.90
33414;DHT22;60055;41.884;12.534;2023-01-15T13:43:37;14.00;99.90
33414;DHT22;60055;41.884;12.534;2023-01-15T13:46:09;13.90;99.90
33414;DHT22;60055;41.884;12.534;2023-01-15T13:48:46;14.00;99.90
33414;DHT22;60055;41.884;12.534;2023-01-15T13:53:55;13.90;99.90
33414;DHT22;60055;41.884;12.534;2023-01-15T13:56:28;14.00;99.90
33414;DHT22;60055;41.884;12.534;2023-01-15T13:58:59;14.00;99.90
33414;DHT22;60055;41.884;12.534;2023-01-15T14:01:40;14.00;99.90
33414;DHT22;60055;41.884;12.534;2023-01-15T14:04:30;14.00;99.90
33414;DHT22;60055;41.884;12.534;2023-01-15T14:07:01;14.00;99.90
33414;DHT22;60055;41.884;12.534;2023-01-15T14:09:35;14.10;99.90
33414;DHT22;60055;41.884;12.534;2023-01-15T14:17:40;14.00;99.90
33414;DHT22;60055;41.884;12.534;2023-01-15T14:20:42;14.10;99.90
33414;DHT22;60055;41.884;12.534;2023-01-15T14:23:21;14.10;99.90
33414;DHT22;60055;41.884;12.534;2023-01-15T14:26:20;14.20;99.90
33414;DHT22;60055;41.884;12.534;2023-01-15T14:31:59;14.00;99.90
33414;DHT22;60055;41.884;12.534;2023-01-15T14:34:31;14.00;99.90
33414;DHT22;60055;41.884;12.534;2023-01-15T14:39:34;14.00;99.90
33414;DHT22;60055;41.884;12.534;2023-01-15T14:47:57;14.00;99.90
33414;DHT22;60055;41.884;12.534;2023-01-15T14:50:37;14.00;99.90
33414;DHT22;60055;41.884;12.534;2023-01-15T14:53:13;13.80;99.90
33414;DHT22;60055;41.884;12.534;2023-01-15T14:59:28;14.00;99.90
33414;DHT22;60055;41.884;12.534;2023-01-15T15:02:20;14.00;99.90
33414;DHT22;60055;41.884;12.534;2023-01-15T15:05:22;14.00;99.90
33414;DHT22;60055;41.884;12.534;2023-01-15T15:08:05;14.00;99.90
33414;DHT22;60055;41.884;12.534;2023-01-15T15:11:00;13.90;99.90
33414;DHT22;60055;41.884;12.534;2023-01-15T15:13:55;13.80;99.90
33414;DHT22;60055;41.884;12.534;2023-01-15T15:16:50;13.90;99.90
33414;DHT22;60055;41.884;12.534;2023-01-15T15:19:39;14.00;99.90
33414;DHT22;60055;41.884;12.534;2023-01-15T15:22:25;13.90;99.90
33414;DHT22;60055;41.884;12.534;2023-01-15T15:25:21;13.80;99.90
33414;DHT22;60055;41.884;12.534;2023-01-15T15:27:50;13.80;99.90
33414;DHT22;60055;41.884;12.534;2023-01-15T15:30:58;13.90;99.90
33414;DHT22;60055;41.884;12.534;2023-01-15T15:33:52;13.80;99.90
33414;DHT22;60055;41.884;12.534;2023-01-15T15:36:38;13.80;99.90
33414;DHT22;60055;41.884;12.534;2023-01-15T15:39:18;13.70;99.90
33414;DHT22;60055;41.884;12.534;2023-01-15T15:42:00;13.70;99.90
33414;DHT22;60055;41.884;12.534;2023-01-15T15:44:56;13.70;99.90
33414;DHT22;60055;41.884;12.534;2023-01-15T15:54:55;13.50;99.90
33414;DHT22;60055;41.884;12.534;2023-01-15T15:57:39;13.60;99.90
33414;DHT22;60055;41.884;12.534;2023-01-15T16:00:32;13.60;99.90
33414;DHT22;60055;41.884;12.534;2023-01-15T16:03:27;13.60;99.90
33414;DHT22;60055;41.884;12.534;2023-01-15T16:07:01;13.60;99.90
33414;DHT22;60055;41.884;12.534;2023-01-15T16:12:16;13.50;99.90
33414;DHT22;60055;41.884;12.534;2023-01-15T16:14:48;13.50;99.90
33414;DHT22;60055;41.884;12.534;2023-01-15T16:17:14;13.50;99.90
33414;DHT22;60055;41.884;12.534;2023-01-15T16:19:44;13.50;99.90
33414;DHT22;60055;41.884;12.534;2023-01-15T16:22:15;13.40;99.90
33414;DHT22;60055;41.884;12.534;2023-01-15T16:25:03;13.50;99.90
33414;DHT22;60055;41.884;12.534;2023-01-15T16:27:32;13.50;99.90
33414;DHT22;60055;41.884;12.534;2023-01-15T16:30:03;13.40;99.90
33414;DHT22;60055;41.884;12.534;2023-01-15T16:32:32;13.40;99.90
33414;DHT22;60055;41.884;12.534;2023-01-15T16:38:35;13.50;99.90
33414;DHT22;60055;41.884;12.534;2023-01-15T16:41:31;13.50;99.90
33414;DHT22;60055;41.884;12.534;2023-01-15T16:44:03;13.40;99.90
33414;DHT22;60055;41.884;12.534;2023-01-15T16:46:34;13.50;99.90
33414;DHT22;60055;41.884;12.534;2023-01-15T16:49:27;13.40;99.90
33414;DHT22;60055;41.884;12.534;2023-01-15T16:51:56;13.40;99.90
33414;DHT22;60055;41.884;12.534;2023-01-15T16:57:03;13.40;99.90
33414;DHT22;60055;41.884;12.534;2023-01-15T17:02:12;13.40;99.90
33414;DHT22;60055;41.884;12.534;2023-01-15T17:04:45;13.40;99.90
33414;DHT22;60055;41.884;12.534;2023-01-15T17:07:25;13.40;99.90
33414;DHT22;60055;41.884;12.534;2023-01-15T17:13:19;13.30;99.90
33414;DHT22;60055;41.884;12.534;2023-01-15T17:16:19;13.30;99.90
33414;DHT22;60055;41.884;12.534;2023-01-15T17:18:48;13.30;99.90
33414;DHT22;60055;41.884;12.534;2023-01-15T17:21:21;13.30;99.90
33414;DHT22;60055;41.884;12.534;2023-01-15T17:23:58;13.40;99.90
33414;DHT22;60055;41.884;12.534;2023-01-15T17:26:25;13.40;99.90
33414;DHT22;60055;41.884;12.534;2023-01-15T17:28:55;13.30;99.90
33414;DHT22;60055;41.884;12.534;2023-01-15T17:31:28;13.20;99.90
33414;DHT22;60055;41.884;12.534;2023-01-15T17:33:57;13.20;99.90
33414;DHT22;60055;41.884;12.534;2023-01-15T17:36:25;13.20;99.90
33414;DHT22;60055;41.884;12.534;2023-01-15T17:38:57;13.10;99.90
33414;DHT22;60055;41.884;12.534;2023-01-15T17:41:23;13.10;99.90
33414;DHT22;60055;41.884;12.534;2023-01-15T17:43:49;13.20;99.90
33414;DHT22;60055;41.884;12.534;2023-01-15T17:46:19;13.20;99.90
33414;DHT22;60055;41.884;12.534;2023-01-15T17:48:45;13.20;99.90
33414;DHT22;60055;41.884;12.534;2023-01-15T17:51:17;13.20;99.90
33414;DHT22;60055;41.884;12.534;2023-01-15T17:54:01;13.20;99.90
33414;DHT22;60055;41.884;12.534;2023-01-15T17:56:26;13.10;99.90
33414;DHT22;60055;41.884;12.534;2023-01-15T17:59:13;13.10;99.90
33414;DHT22;60055;41.884;12.534;2023-01-15T18:02:00;13.20;99.90
33414;DHT22;60055;41.884;12.534;2023-01-15T18:04:51;13.10;99.90
33414;DHT22;60055;41.884;12.534;2023-01-15T18:07:40;13.20;99.90
33414;DHT22;60055;41.884;12.534;2023-01-15T18:10:11;13.20;99.90
33414;DHT22;60055;41.884;12.534;2023-01-15T18:12:47;13.20;99.90
33414;DHT22;60055;41.884;12.534;2023-01-15T18:15:38;13.30;99.90